Skip to main content.
 TIME   TEMPERATURE   WINDSPEED   DIRECTION   HUMIDITY   BAROMETER   RAINFALL 
6:20 12.9°C (55.2°F) 25.9 kmh (16.1 mph) N 52% 1018.0hPa (30.06 inHg) 0.0mm (0.00 in.)
5:20 13.0°C (55.4 °F) 22.2 kmh (13.8 mph) N 53% 1017.0hPa (30.03 inHg) 0.0mm (0.00 in.)
4:20 13.2°C (55.8 °F) 18.5 kmh (11.5 mph) NNE 52% 1016.0hPa (30.00 inHg) 0.0mm (0.00 in.)
3:20 13.4°C (56.1 °F) 38.9 kmh (24.2 mph) NNE 52% 1016.0hPa (30.00 inHg) 0.0mm (0.00 in.)
2:20 13.6°C (56.5 °F) 24.1 kmh (15.0 mph) NNE 54% 1016.0hPa (30.00 inHg) 0.0mm (0.00 in.)
1:20 14.1°C (57.4 °F) 29.6 kmh (18.4 mph) NE 56% 1015.0hPa (29.97 inHg) 0.0mm (0.00 in.)
12:20 14.1°C (57.4 °F) 27.8 kmh (17.3 mph) NNW 56% 1015.0hPa (29.97 inHg) 0.0mm (0.00 in.)
11:20 14.2°C (57.6 °F) 35.2 kmh (21.9 mph) NNE 61% 1014.0hPa (29.94 inHg) 0.0mm (0.00 in.)
10:20 14.4°C (57.9 °F) 22.2 kmh (13.8 mph) N 64% 1014.0hPa (29.94 inHg) 0.0mm (0.00 in.)
9:20 14.3°C (57.7 °F) 18.5 kmh (11.5 mph) WNW 68% 1013.0hPa (29.91 inHg) 0.0mm (0.00 in.)
8:20 14.7°C (58.5 °F) 20.4 kmh (12.7 mph) WNW 69% 1013.0hPa (29.91 inHg) 0.0mm (0.00 in.)
7:20 15.0°C (59.0 °F) 16.7 kmh (10.4 mph) NW 67% 1013.0hPa (29.91 inHg) 0.0mm (0.00 in.)
6:20 15.1°C (59.2 °F) 14.8 kmh (9.2 mph) NNW 62% 1013.0hPa (29.91 inHg) 0.0mm (0.00 in.)
5:20 16.4°C (61.5 °F) 22.2 kmh (13.8 mph) NW 58% 1013.0hPa (29.91 inHg) 0.0mm (0.00 in.)
4:20 16.6°C (61.9 °F) 20.4 kmh (12.7 mph) NNE 57% 1013.0hPa (29.91 inHg) 0.0mm (0.00 in.)
3:20 17.3°C (63.1 °F) 18.5 kmh (11.5 mph) NW 58% 1013.0hPa (29.91 inHg) 0.0mm (0.00 in.)
2:20 17.3°C (63.1 °F) 14.8 kmh (9.2 mph) NW 61% 1013.0hPa (29.91 inHg) 0.0mm (0.00 in.)
1:20 17.6°C (63.7 °F) 18.5 kmh (11.5 mph) NW 64% 1013.0hPa (29.91 inHg) 0.0mm (0.00 in.)
12:20 17.3°C (63.1 °F) 14.8 kmh (9.2 mph) NW 64% 1014.0hPa (29.94 inHg) 0.0mm (0.00 in.)
11:20 17.0°C (62.6 °F) 13.0 kmh (8.1 mph) N 63% 1015.0hPa (29.97 inHg) 0.0mm (0.00 in.)
10:20 15.6°C (60.1 °F) 18.5 kmh (11.5 mph) NNW 62% 1016.0hPa (30.00 inHg) 0.0mm (0.00 in.)
9:20 15.1°C (59.2 °F) 11.1 kmh (6.9 mph) NW 62% 1015.0hPa (29.97 inHg) 0.0mm (0.00 in.)
8:20 13.1°C (55.6 °F) 13.0 kmh (8.1 mph) NNW 66% 1015.0hPa (29.97 inHg) 0.0mm (0.00 in.)
7:20 13.1°C (55.6 °F) 11.1 kmh (6.9 mph) NW 68% 1016.0hPa (30.00 inHg) 0.0mm (0.00 in.)